createdAt,value
2018-07-28T00:03:03.145Z,23.10
2018-07-28T00:05:33.868Z,23.00
2018-07-28T00:10:34.641Z,22.90
2018-07-28T00:13:05.688Z,22.90
2018-07-28T00:15:36.396Z,22.90
2018-07-28T00:18:07.097Z,22.80
2018-07-28T00:20:37.858Z,22.80
2018-07-28T00:28:13.266Z,22.60
2018-07-28T00:30:43.977Z,22.60
2018-07-28T00:33:14.470Z,22.50
2018-07-28T00:35:45.113Z,22.50
2018-07-28T00:38:15.823Z,22.50
2018-07-28T00:40:46.541Z,22.40
2018-07-28T00:43:17.303Z,22.40
2018-07-28T00:45:47.853Z,22.40
2018-07-28T00:48:18.380Z,22.30
2018-07-28T00:50:49.090Z,22.30
2018-07-28T00:53:19.654Z,22.20
2018-07-28T00:55:50.165Z,22.20
2018-07-28T00:58:20.748Z,22.10
2018-07-28T01:00:51.575Z,22.10
2018-07-28T01:03:22.248Z,22.10
2018-07-28T01:05:52.921Z,22.10
2018-07-28T01:10:53.756Z,21.90
2018-07-28T01:13:24.337Z,21.90
2018-07-28T01:15:55.636Z,21.90
2018-07-28T01:18:26.276Z,21.90
2018-07-28T01:20:57.378Z,21.80
2018-07-28T01:23:28.145Z,21.70
2018-07-28T01:25:59.019Z,21.70
2018-07-28T01:28:29.715Z,21.70
2018-07-28T01:31:00.256Z,21.70
2018-07-28T01:36:01.053Z,21.50
2018-07-28T01:38:31.621Z,21.50
2018-07-28T01:41:02.361Z,21.50
2018-07-28T01:43:32.808Z,21.40
2018-07-28T01:46:03.556Z,21.40
2018-07-28T01:48:34.277Z,21.40
2018-07-28T01:51:05.117Z,21.30
2018-07-28T01:53:35.645Z,21.30
2018-07-28T01:56:06.561Z,21.40
2018-07-28T02:03:37.479Z,21.30
2018-07-28T02:06:07.992Z,21.30
2018-07-28T02:08:38.713Z,21.30
2018-07-28T02:11:09.306Z,21.30
2018-07-28T02:13:40.450Z,21.30
2018-07-28T02:16:10.971Z,21.30
2018-07-28T02:18:41.629Z,21.20
2018-07-28T02:21:12.170Z,21.20
2018-07-28T02:23:42.896Z,21.20
2018-07-28T02:26:13.623Z,21.10
2018-07-28T02:28:44.279Z,21.10
2018-07-28T02:31:14.883Z,21.00
2018-07-28T02:33:45.539Z,21.00
2018-07-28T02:36:16.096Z,21.00
2018-07-28T02:38:46.706Z,20.90
2018-07-28T02:43:47.516Z,21.00
2018-07-28T02:46:18.785Z,20.90
2018-07-28T02:48:49.368Z,20.90
2018-07-28T02:51:19.813Z,20.90
2018-07-28T02:53:50.441Z,20.90
2018-07-28T02:56:21.032Z,20.90
2018-07-28T02:58:51.521Z,20.90
2018-07-28T03:01:22.187Z,20.80
2018-07-28T03:03:53.246Z,20.80
2018-07-28T03:06:23.946Z,20.80
2018-07-28T03:08:54.837Z,20.80
2018-07-28T03:11:25.410Z,20.80
2018-07-28T03:13:56.229Z,20.70
2018-07-28T03:16:26.753Z,20.70
2018-07-28T03:18:57.323Z,20.70
2018-07-28T03:21:27.779Z,20.60
2018-07-28T03:23:58.382Z,20.60
2018-07-28T03:26:29.099Z,20.50
2018-07-28T03:28:59.645Z,20.40
2018-07-28T03:31:30.272Z,20.40
2018-07-28T03:34:01.114Z,20.40
2018-07-28T03:36:31.728Z,20.30
2018-07-28T03:39:02.270Z,20.30
2018-07-28T03:41:32.965Z,20.30
2018-07-28T03:44:03.817Z,20.30
2018-07-28T03:46:34.467Z,20.30
2018-07-28T03:49:05.056Z,20.30
2018-07-28T03:51:35.609Z,20.30
2018-07-28T03:54:06.187Z,20.30
2018-07-28T03:56:37.164Z,20.20
2018-07-28T03:59:08.154Z,20.20
2018-07-28T04:01:38.615Z,20.20
2018-07-28T04:04:09.192Z,20.20
2018-07-28T04:06:39.852Z,20.20
2018-07-28T04:09:10.980Z,20.20
2018-07-28T04:11:41.451Z,20.00
2018-07-28T04:14:12.096Z,20.00
2018-07-28T04:16:42.662Z,20.00
2018-07-28T04:19:13.293Z,20.10
2018-07-28T04:21:44.636Z,20.10
2018-07-28T04:24:15.254Z,20.20
2018-07-28T04:26:46.005Z,20.30
2018-07-28T04:29:16.663Z,20.30
2018-07-28T04:31:47.516Z,20.40
2018-07-28T04:34:18.183Z,20.50
2018-07-28T04:36:49.317Z,20.40
2018-07-28T04:39:20.061Z,20.50
2018-07-28T04:41:50.829Z,20.60
2018-07-28T04:44:21.468Z,20.50
2018-07-28T04:46:55.260Z,20.50
2018-07-28T04:49:26.405Z,20.60
2018-07-28T04:51:56.949Z,20.70
2018-07-28T04:54:27.548Z,20.80
2018-07-28T04:56:58.186Z,20.90
2018-07-28T04:59:28.808Z,21.00
2018-07-28T05:02:00.073Z,21.10
2018-07-28T05:04:30.581Z,21.20
2018-07-28T05:07:01.029Z,21.30
2018-07-28T05:09:31.645Z,21.50
2018-07-28T05:12:02.172Z,21.60
2018-07-28T05:14:32.712Z,21.80
2018-07-28T05:17:03.195Z,21.90
2018-07-28T05:19:33.938Z,22.10
2018-07-28T05:22:04.566Z,22.30
2018-07-28T05:24:35.166Z,22.40
2018-07-28T05:27:05.988Z,22.60
2018-07-28T05:29:37.920Z,22.90
2018-07-28T05:32:08.442Z,23.10
2018-07-28T05:34:39.006Z,23.20
2018-07-28T05:39:39.739Z,23.50
2018-07-28T05:44:40.625Z,23.80
2018-07-28T05:47:11.349Z,24.00
2018-07-28T05:52:12.001Z,24.90
2018-07-28T05:54:43.043Z,25.50
2018-07-28T05:57:13.767Z,26.20
2018-07-28T06:02:14.572Z,28.50
2018-07-28T06:04:45.333Z,30.10
2018-07-28T06:07:16.255Z,31.30
2018-07-28T06:09:46.843Z,31.30
2018-07-28T06:12:17.755Z,31.40
2018-07-28T06:14:48.490Z,31.70
2018-07-28T06:17:19.026Z,31.70
2018-07-28T06:19:49.657Z,31.70
2018-07-28T06:22:20.295Z,31.60
2018-07-28T06:24:50.895Z,31.60
2018-07-28T06:27:21.541Z,31.60
2018-07-28T06:29:52.305Z,31.30
2018-07-28T06:32:22.940Z,30.40
2018-07-28T06:34:53.535Z,29.80
2018-07-28T06:37:24.267Z,29.50
2018-07-28T06:39:54.833Z,29.20
2018-07-28T06:42:25.545Z,28.90
2018-07-28T06:44:59.112Z,28.90
2018-07-28T06:47:29.773Z,28.90
2018-07-28T06:50:00.429Z,28.60
2018-07-28T06:52:30.923Z,28.30
2018-07-28T06:55:01.568Z,27.80
2018-07-28T06:57:32.013Z,27.70
2018-07-28T07:00:02.665Z,27.10
2018-07-28T07:02:33.244Z,26.40
2018-07-28T07:05:04.013Z,25.90
2018-07-28T07:07:34.616Z,25.90
2018-07-28T07:12:35.782Z,25.30
2018-07-28T07:17:37.282Z,24.80
2018-07-28T07:20:08.224Z,24.90
2018-07-28T07:22:38.716Z,25.00
2018-07-28T07:25:09.290Z,25.00
2018-07-28T07:27:40.027Z,25.10
2018-07-28T07:30:10.519Z,25.20
2018-07-28T07:35:11.956Z,25.60
2018-07-28T07:37:42.614Z,25.90
2018-07-28T07:40:13.211Z,25.90
2018-07-28T07:42:43.774Z,25.90
2018-07-28T07:45:14.533Z,25.90
2018-07-28T07:47:45.253Z,25.00
2018-07-28T07:50:15.822Z,24.00
2018-07-28T07:52:46.598Z,23.50
2018-07-28T07:55:17.333Z,23.20
2018-07-28T07:57:47.961Z,22.80
2018-07-28T08:00:18.771Z,22.60
2018-07-28T08:02:49.431Z,22.40
2018-07-28T08:05:20.049Z,22.10
2018-07-28T08:07:50.936Z,22.00
2018-07-28T08:10:21.679Z,21.80
2018-07-28T08:12:52.202Z,21.80
2018-07-28T08:15:23.384Z,21.80
2018-07-28T08:17:53.875Z,21.70
2018-07-28T08:20:24.728Z,21.70
2018-07-28T08:25:25.488Z,21.90
2018-07-28T08:27:56.154Z,22.10
2018-07-28T08:30:26.931Z,22.40
2018-07-28T08:32:57.670Z,22.60
2018-07-28T08:35:28.354Z,22.90
2018-07-28T08:37:59.011Z,23.10
2018-07-28T08:40:29.864Z,23.70
2018-07-28T08:43:00.645Z,24.30
2018-07-28T08:45:31.288Z,25.00
2018-07-28T08:48:01.878Z,25.70
2018-07-28T08:50:32.613Z,26.50
2018-07-28T08:53:03.197Z,26.80
2018-07-28T08:55:33.793Z,27.20
2018-07-28T08:58:04.307Z,27.40
2018-07-28T09:00:34.957Z,27.60
2018-07-28T09:03:05.827Z,27.70
2018-07-28T09:05:36.445Z,27.70
2018-07-28T09:08:07.218Z,27.80
2018-07-28T09:10:37.961Z,27.50
2018-07-28T09:15:38.612Z,27.80
2018-07-28T09:18:09.198Z,28.40
2018-07-28T09:20:39.772Z,29.40
2018-07-28T09:23:10.448Z,30.40
2018-07-28T09:25:40.916Z,30.80
2018-07-28T09:28:11.680Z,31.50
2018-07-28T09:30:42.459Z,32.70
2018-07-28T09:33:13.073Z,33.50
2018-07-28T09:35:43.612Z,34.40
2018-07-28T09:38:14.285Z,34.60
2018-07-28T09:40:44.908Z,34.30
2018-07-28T09:43:15.688Z,35.30
2018-07-28T09:45:46.347Z,36.90
2018-07-28T09:48:17.193Z,38.90
2018-07-28T09:50:50.740Z,40.60
2018-07-28T09:53:21.522Z,42.20
2018-07-28T09:55:52.308Z,42.60
2018-07-28T09:58:22.832Z,43.10
2018-07-28T10:00:59.596Z,43.40
2018-07-28T10:03:30.379Z,43.80
2018-07-28T10:06:01.064Z,43.70
2018-07-28T10:08:31.752Z,43.20
2018-07-28T10:11:02.432Z,43.60
2018-07-28T10:13:33.046Z,44.10
2018-07-28T10:18:33.734Z,41.30
2018-07-28T10:21:04.535Z,39.00
2018-07-28T10:23:35.337Z,37.40
2018-07-28T10:26:06.156Z,36.60
2018-07-28T10:28:36.863Z,36.40
2018-07-28T10:31:07.451Z,36.10
2018-07-28T10:33:38.018Z,35.90
2018-07-28T10:36:09.084Z,35.60
2018-07-28T10:38:39.778Z,35.40
2018-07-28T10:41:10.653Z,35.50
2018-07-28T10:43:41.525Z,35.30
2018-07-28T10:46:12.229Z,35.30
2018-07-28T10:48:43.039Z,35.40
2018-07-28T10:51:16.639Z,36.40
2018-07-28T10:53:47.405Z,37.00
2018-07-28T10:56:18.081Z,38.00
2018-07-28T10:58:48.619Z,39.30
2018-07-28T11:01:19.134Z,40.40
2018-07-28T11:03:49.837Z,40.90
2018-07-28T11:06:20.865Z,41.10
2018-07-28T11:08:51.733Z,39.80
2018-07-28T11:11:22.909Z,39.10
2018-07-28T11:13:53.515Z,38.40
2018-07-28T11:16:24.707Z,38.40
2018-07-28T11:18:55.249Z,37.80
2018-07-28T11:21:25.896Z,37.30
2018-07-28T11:24:01.303Z,36.70
2018-07-28T11:26:32.027Z,36.90
2018-07-28T11:29:02.552Z,36.30
2018-07-28T11:34:31.408Z,34.60
2018-07-28T11:37:16.264Z,34.10
2018-07-28T11:40:03.865Z,33.60
2018-07-28T11:42:51.287Z,33.20
2018-07-28T11:45:21.778Z,33.30
2018-07-28T11:47:52.320Z,33.10
2018-07-28T11:50:22.939Z,32.90
2018-07-28T11:52:53.938Z,32.40
2018-07-28T11:55:24.373Z,32.50
2018-07-28T11:57:55.029Z,32.50
2018-07-28T12:00:25.701Z,32.80
2018-07-28T12:05:26.462Z,33.00
2018-07-28T12:07:57.077Z,32.90
2018-07-28T12:10:27.635Z,33.00
2018-07-28T12:12:58.235Z,32.70
2018-07-28T12:15:28.848Z,32.50
2018-07-28T12:17:59.512Z,32.30
2018-07-28T12:20:30.042Z,32.10
2018-07-28T12:23:00.655Z,31.80
2018-07-28T12:25:31.324Z,31.50
2018-07-28T12:28:02.021Z,31.30
2018-07-28T12:30:32.869Z,31.10
2018-07-28T12:33:03.500Z,30.90
2018-07-28T12:35:34.216Z,30.70
2018-07-28T12:38:04.840Z,30.60
2018-07-28T12:40:35.509Z,30.70
2018-07-28T12:43:09.211Z,30.70
2018-07-28T12:45:39.847Z,30.70
2018-07-28T12:48:10.564Z,30.70
2018-07-28T12:50:41.081Z,30.80
2018-07-28T12:53:11.817Z,30.90
2018-07-28T12:55:42.361Z,30.50
2018-07-28T12:58:12.982Z,30.00
2018-07-28T13:00:43.647Z,28.90
2018-07-28T13:03:14.565Z,27.70
2018-07-28T13:08:15.461Z,25.90
2018-07-28T13:10:46.059Z,25.60
2018-07-28T13:13:16.705Z,25.10
2018-07-28T13:15:47.332Z,25.00
2018-07-28T13:18:18.903Z,25.00
2018-07-28T13:20:49.706Z,25.20
2018-07-28T13:25:50.344Z,25.80
2018-07-28T13:30:51.173Z,25.70
2018-07-28T13:33:21.791Z,25.60
2018-07-28T13:35:52.372Z,25.60
2018-07-28T13:38:23.088Z,25.70
2018-07-28T13:40:53.860Z,25.70
2018-07-28T13:43:27.256Z,26.00
2018-07-28T13:45:58.693Z,26.20
2018-07-28T13:48:29.449Z,26.30
2018-07-28T13:50:59.949Z,26.30
2018-07-28T13:53:31.301Z,26.40
2018-07-28T13:56:02.166Z,26.30
2018-07-28T13:58:32.991Z,26.30
2018-07-28T14:01:03.741Z,26.50
2018-07-28T14:03:34.343Z,26.80
2018-07-28T14:06:05.513Z,27.40
2018-07-28T14:08:36.098Z,27.90
2018-07-28T14:11:07.161Z,28.30
2018-07-28T14:13:37.791Z,28.90
2018-07-28T14:16:08.578Z,29.10
2018-07-28T14:18:39.187Z,29.50
2018-07-28T14:21:09.897Z,29.70
2018-07-28T14:23:40.579Z,29.80
2018-07-28T14:26:11.291Z,29.50
2018-07-28T14:28:41.924Z,29.30
2018-07-28T14:31:12.555Z,29.30
2018-07-28T14:33:43.368Z,29.20
2018-07-28T14:36:13.928Z,29.10
2018-07-28T14:38:44.519Z,28.90
2018-07-28T14:43:45.997Z,29.20
2018-07-28T14:46:16.728Z,29.40
2018-07-28T14:48:47.269Z,29.70
2018-07-28T14:51:17.886Z,29.70
2018-07-28T14:53:48.616Z,29.70
2018-07-28T14:56:19.308Z,29.80
2018-07-28T14:58:50.053Z,29.70
2018-07-28T15:01:20.615Z,29.50
2018-07-28T15:03:51.261Z,29.30
2018-07-28T15:06:22.031Z,29.30
2018-07-28T15:08:52.566Z,29.50
2018-07-28T15:11:23.363Z,29.60
2018-07-28T15:13:54.097Z,29.70
2018-07-28T15:16:24.816Z,30.00
2018-07-28T15:18:55.773Z,30.40
2018-07-28T15:21:26.536Z,30.60
2018-07-28T15:23:57.157Z,30.50
2018-07-28T15:26:27.971Z,30.30
2018-07-28T15:28:58.497Z,30.20
2018-07-28T15:31:28.956Z,30.10
2018-07-28T15:33:59.542Z,30.20
2018-07-28T15:36:30.319Z,30.20
2018-07-28T15:39:00.875Z,30.20
2018-07-28T15:41:31.374Z,30.30
2018-07-28T15:44:01.963Z,30.20
2018-07-28T15:46:32.660Z,30.00
2018-07-28T15:49:03.299Z,29.90
2018-07-28T15:51:34.863Z,29.40
2018-07-28T15:54:05.937Z,29.20
2018-07-28T15:56:36.658Z,29.00
2018-07-28T15:59:08.222Z,28.90
2018-07-28T16:01:39.011Z,28.80
2018-07-28T16:04:09.530Z,29.00
2018-07-28T16:06:40.144Z,29.30
2018-07-28T16:09:11.465Z,29.50
2018-07-28T16:11:42.085Z,29.60
2018-07-28T16:16:43.161Z,29.40
2018-07-28T16:19:13.892Z,29.30
2018-07-28T16:21:44.726Z,28.80
2018-07-28T16:24:16.155Z,28.60
2018-07-28T16:26:46.834Z,28.60
2018-07-28T16:29:17.350Z,28.50
2018-07-28T16:31:47.982Z,28.70
2018-07-28T16:34:18.973Z,28.80
2018-07-28T16:36:49.916Z,28.70
2018-07-28T16:39:20.452Z,28.70
2018-07-28T16:41:51.107Z,28.70
2018-07-28T16:46:51.959Z,28.90
2018-07-28T16:49:22.522Z,29.10
2018-07-28T16:51:53.093Z,29.30
2018-07-28T16:54:23.808Z,29.50
2018-07-28T16:56:54.446Z,29.50
2018-07-28T16:59:25.101Z,29.30
2018-07-28T17:01:55.778Z,29.30
2018-07-28T17:04:26.401Z,29.10
2018-07-28T17:06:56.980Z,28.90
2018-07-28T17:09:27.648Z,28.70
2018-07-28T17:11:58.807Z,28.50
2018-07-28T17:14:29.408Z,28.30
2018-07-28T17:17:00.253Z,28.20
2018-07-28T17:19:30.960Z,28.00
2018-07-28T17:22:01.550Z,27.90
2018-07-28T17:24:32.125Z,27.90
2018-07-28T17:27:02.796Z,27.80
2018-07-28T17:29:33.496Z,27.80
2018-07-28T17:34:34.962Z,27.70
2018-07-28T17:37:05.532Z,27.80
2018-07-28T17:39:36.247Z,27.90
2018-07-28T17:44:37.226Z,27.90
2018-07-28T17:47:08.194Z,27.90
2018-07-28T17:49:39.590Z,27.90
2018-07-28T17:52:10.943Z,28.10
2018-07-28T17:54:41.567Z,28.20
2018-07-28T17:57:13.062Z,28.20
2018-07-28T17:59:43.874Z,28.20
2018-07-28T18:02:14.429Z,28.00
2018-07-28T18:04:45.303Z,28.00
2018-07-28T18:09:46.286Z,27.50
2018-07-28T18:14:47.160Z,27.10
2018-07-28T18:17:17.808Z,26.90
2018-07-28T18:19:48.371Z,26.80
2018-07-28T18:22:19.120Z,26.50
2018-07-28T18:27:20.481Z,26.00
2018-07-28T18:29:51.025Z,25.70
2018-07-28T18:32:21.791Z,25.50
2018-07-28T18:34:53.018Z,25.40
2018-07-28T18:37:24.127Z,25.10
2018-07-28T18:39:54.877Z,24.90
2018-07-28T18:42:25.804Z,24.70
2018-07-28T18:44:56.589Z,24.60
2018-07-28T18:47:27.346Z,24.40
2018-07-28T18:49:57.915Z,24.20
2018-07-28T18:54:58.698Z,23.90
2018-07-28T18:57:29.440Z,23.50
2018-07-28T18:59:59.938Z,23.40
2018-07-28T19:05:00.813Z,23.20
2018-07-28T19:07:31.443Z,23.00
2018-07-28T19:10:02.173Z,23.00
2018-07-28T19:12:38.022Z,22.90
2018-07-28T19:15:08.547Z,22.80
2018-07-28T19:17:44.397Z,22.60
2018-07-28T19:20:14.990Z,22.50
2018-07-28T19:22:50.825Z,22.30
2018-07-28T19:25:21.543Z,22.20
2018-07-28T19:27:57.485Z,22.10
2018-07-28T19:30:28.068Z,21.90
2018-07-28T19:32:58.749Z,21.80
2018-07-28T19:35:34.640Z,21.80
2018-07-28T19:38:05.227Z,21.80
2018-07-28T19:40:35.999Z,21.70
2018-07-28T19:43:07.125Z,21.50
2018-07-28T19:45:37.606Z,21.40
2018-07-28T19:48:08.322Z,21.30
2018-07-28T19:50:38.891Z,21.30
2018-07-28T19:53:09.793Z,21.20
2018-07-28T19:55:40.470Z,21.10
2018-07-28T19:58:14.072Z,20.90
2018-07-28T20:00:45.017Z,20.80
2018-07-28T20:03:15.789Z,20.70
2018-07-28T20:05:46.576Z,20.50
2018-07-28T20:08:17.142Z,20.40
2018-07-28T20:10:47.738Z,20.40
2018-07-28T20:13:18.862Z,20.20
2018-07-28T20:15:49.525Z,20.20
2018-07-28T20:18:20.261Z,20.20
2018-07-28T20:20:50.883Z,20.20
2018-07-28T20:23:21.652Z,20.30
2018-07-28T20:25:52.294Z,20.40
2018-07-28T20:28:23.037Z,20.60
2018-07-28T20:30:53.656Z,20.60
2018-07-28T20:33:24.237Z,20.60
2018-07-28T20:35:55.477Z,20.70
2018-07-28T20:38:26.725Z,20.60
2018-07-28T20:40:57.273Z,20.60
2018-07-28T20:43:27.849Z,20.50
2018-07-28T20:45:58.429Z,20.30
2018-07-28T20:48:29.354Z,20.40
2018-07-28T20:53:30.243Z,20.70
2018-07-28T20:56:03.303Z,20.90
2018-07-28T20:58:34.239Z,21.00
2018-07-28T21:03:36.438Z,20.80
2018-07-28T21:06:07.004Z,20.80
2018-07-28T21:08:37.582Z,20.70
2018-07-28T21:11:08.128Z,20.50
2018-07-28T21:13:38.939Z,20.40
2018-07-28T21:16:09.700Z,20.40
2018-07-28T21:18:40.620Z,20.40
2018-07-28T21:21:11.175Z,20.30
2018-07-28T21:23:42.394Z,20.10
2018-07-28T21:26:13.094Z,20.10
2018-07-28T21:28:44.280Z,20.10
2018-07-28T21:31:14.821Z,20.10
2018-07-28T21:33:46.566Z,20.00
2018-07-28T21:36:17.106Z,20.00
2018-07-28T21:38:47.734Z,20.00
2018-07-28T21:41:19.120Z,19.90
2018-07-28T21:43:49.705Z,19.90
2018-07-28T21:46:26.388Z,19.90
2018-07-28T21:48:57.210Z,19.80
2018-07-28T21:51:27.912Z,19.70
2018-07-28T21:53:59.101Z,19.70
2018-07-28T21:56:29.764Z,19.80
2018-07-28T21:59:00.472Z,19.80
2018-07-28T22:01:31.243Z,19.80
2018-07-28T22:04:03.463Z,19.70
2018-07-28T22:06:35.003Z,19.70
2018-07-28T22:09:07.510Z,19.70
2018-07-28T22:11:38.160Z,19.60
2018-07-28T22:14:08.917Z,19.50
2018-07-28T22:16:39.608Z,19.60
2018-07-28T22:19:11.711Z,19.60
2018-07-28T22:21:43.227Z,19.50
2018-07-28T22:24:13.903Z,19.50
2018-07-28T22:26:44.600Z,19.60
2018-07-28T22:29:15.582Z,19.50
2018-07-28T22:31:46.037Z,19.40
2018-07-28T22:34:16.734Z,19.40
2018-07-28T22:36:47.501Z,19.40
2018-07-28T22:39:18.112Z,19.20
2018-07-28T22:41:48.668Z,19.30
2018-07-28T22:44:19.249Z,19.20
2018-07-28T22:46:49.840Z,19.30
2018-07-28T22:49:20.469Z,19.40
2018-07-28T22:51:50.989Z,19.30
2018-07-28T22:54:22.369Z,19.20
2018-07-28T22:56:52.944Z,19.40
2018-07-28T22:59:23.498Z,19.30
2018-07-28T23:01:55.060Z,19.30
2018-07-28T23:04:25.637Z,19.20
2018-07-28T23:06:57.011Z,19.20
2018-07-28T23:09:27.635Z,19.20
2018-07-28T23:11:58.264Z,19.20
2018-07-28T23:14:29.110Z,19.20
2018-07-28T23:16:59.635Z,19.20
2018-07-28T23:19:30.326Z,19.20
2018-07-28T23:22:01.270Z,19.20
2018-07-28T23:24:31.750Z,19.30
2018-07-28T23:27:02.367Z,19.40
2018-07-28T23:29:33.045Z,19.40
2018-07-28T23:32:03.666Z,19.50
2018-07-28T23:34:34.217Z,19.40
2018-07-28T23:37:04.813Z,19.30
2018-07-28T23:39:35.382Z,19.30
2018-07-28T23:42:06.204Z,19.20
2018-07-28T23:44:36.902Z,19.20
2018-07-28T23:47:07.660Z,19.10
2018-07-28T23:49:38.266Z,19.00
2018-07-28T23:52:08.766Z,19.00
2018-07-28T23:54:39.513Z,19.00
2018-07-28T23:57:09.955Z,19.00
2018-07-28T23:59:40.753Z,19.00
